Abbot Village, Maine
Current Conditions -  °F | °C
As of 5:53 AM on Friday 21 Nov 2014 (Local Time) from KBGR Reporting Station
Clear Clear  
Wind Chill: -9°   Ceiling: Unl
Heat Index: -4°   Visibility: 10mi
Dew Point: -12°   Wind: 8mph
Humidity: 55%   Direction: 260°W
Pressure: 29.83"   Gusts: NA
Location:  45.19°N, 69.45°W
Report Text: KBGR 211053Z 26007KT 220V300 10SM CLR M04/M12 A2983 RMK AO2 SLP103 T10441122
Loading
Personal Weather Stations






























Interactive Weather Map New forecast layout! Learn more

10-Day Weather Forecast

Advertisements
Track Severe Weather on mobile